sensor_id;sensor_type;location;lat;lon;timestamp;pressure;altitude;pressure_sealevel;temperature;humidity
42385;BME280;28042;43.986;22.860;2023-02-17T00:02:04;102123.84;;;2.14;96.67
42385;BME280;28042;43.986;22.860;2023-02-17T00:04:30;102121.00;;;2.41;94.05
42385;BME280;28042;43.986;22.860;2023-02-17T00:06:56;102125.47;;;2.66;92.57
42385;BME280;28042;43.986;22.860;2023-02-17T00:09:22;102124.38;;;2.81;90.96
42385;BME280;28042;43.986;22.860;2023-02-17T00:11:47;102130.72;;;3.17;87.95
42385;BME280;28042;43.986;22.860;2023-02-17T00:14:13;102133.72;;;3.36;85.97
42385;BME280;28042;43.986;22.860;2023-02-17T00:16:38;102137.94;;;3.40;84.66
42385;BME280;28042;43.986;22.860;2023-02-17T00:19:04;102136.44;;;3.36;84.72
42385;BME280;28042;43.986;22.860;2023-02-17T00:21:48;102133.72;;;3.36;84.34
42385;BME280;28042;43.986;22.860;2023-02-17T00:24:13;102130.19;;;3.35;84.18
42385;BME280;28042;43.986;22.860;2023-02-17T00:26:38;102136.44;;;3.36;84.46
42385;BME280;28042;43.986;22.860;2023-02-17T00:29:04;102136.66;;;3.33;84.34
42385;BME280;28042;43.986;22.860;2023-02-17T00:31:29;102126.28;;;3.39;83.81
42385;BME280;28042;43.986;22.860;2023-02-17T00:33:55;102117.38;;;3.26;83.68
42385;BME280;28042;43.986;22.860;2023-02-17T00:36:20;102114.06;;;2.99;84.51
42385;BME280;28042;43.986;22.860;2023-02-17T00:38:46;102110.59;;;2.73;86.91
42385;BME280;28042;43.986;22.860;2023-02-17T00:41:12;102110.72;;;2.59;88.36
42385;BME280;28042;43.986;22.860;2023-02-17T00:43:37;102118.13;;;2.80;87.70
42385;BME280;28042;43.986;22.860;2023-02-17T00:46:02;102099.03;;;3.07;86.14
42385;BME280;28042;43.986;22.860;2023-02-17T00:48:28;102094.53;;;3.43;84.31
42385;BME280;28042;43.986;22.860;2023-02-17T00:50:54;102092.41;;;3.71;83.16
42385;BME280;28042;43.986;22.860;2023-02-17T00:53:19;102098.09;;;3.90;82.12
42385;BME280;28042;43.986;22.860;2023-02-17T00:55:45;102090.53;;;4.17;80.39
42385;BME280;28042;43.986;22.860;2023-02-17T00:58:10;102096.28;;;4.46;78.52
42385;BME280;28042;43.986;22.860;2023-02-17T01:00:35;102093.56;;;4.58;77.92
42385;BME280;28042;43.986;22.860;2023-02-17T01:03:01;102089.28;;;4.55;77.78
42385;BME280;28042;43.986;22.860;2023-02-17T01:05:26;102082.28;;;4.41;78.83
42385;BME280;28042;43.986;22.860;2023-02-17T01:07:52;102081.44;;;4.30;79.76
42385;BME280;28042;43.986;22.860;2023-02-17T01:10:17;102082.16;;;4.32;79.92
42385;BME280;28042;43.986;22.860;2023-02-17T01:12:42;102076.75;;;4.32;79.62
42385;BME280;28042;43.986;22.860;2023-02-17T01:15:09;102088.19;;;4.35;79.49
42385;BME280;28042;43.986;22.860;2023-02-17T01:17:34;102079.97;;;4.37;79.23
42385;BME280;28042;43.986;22.860;2023-02-17T01:20:00;102079.97;;;4.37;79.20
42385;BME280;28042;43.986;22.860;2023-02-17T01:22:25;102082.41;;;4.40;79.18
42385;BME280;28042;43.986;22.860;2023-02-17T01:24:50;102078.47;;;4.33;79.11
42385;BME280;28042;43.986;22.860;2023-02-17T01:27:16;102078.47;;;4.33;78.86
42385;BME280;28042;43.986;22.860;2023-02-17T01:29:42;102085.38;;;4.37;78.82
42385;BME280;28042;43.986;22.860;2023-02-17T01:32:08;102078.25;;;4.36;78.63
42385;BME280;28042;43.986;22.860;2023-02-17T01:34:33;102067.44;;;4.24;78.60
42385;BME280;28042;43.986;22.860;2023-02-17T01:36:58;102068.41;;;4.12;79.67
42385;BME280;28042;43.986;22.860;2023-02-17T01:39:23;102077.84;;;4.07;79.84
42385;BME280;28042;43.986;22.860;2023-02-17T01:41:49;102078.72;;;3.85;80.72
42385;BME280;28042;43.986;22.860;2023-02-17T01:44:15;102069.09;;;3.69;81.63
42385;BME280;28042;43.986;22.860;2023-02-17T01:46:42;102074.56;;;3.46;82.22
42385;BME280;28042;43.986;22.860;2023-02-17T01:51:39;102067.47;;;3.21;83.12
42385;BME280;28042;43.986;22.860;2023-02-17T01:54:06;102069.63;;;3.04;84.59
42385;BME280;28042;43.986;22.860;2023-02-17T01:56:33;102059.75;;;2.92;85.80
42385;BME280;28042;43.986;22.860;2023-02-17T01:59:02;102060.84;;;2.90;86.93
42385;BME280;28042;43.986;22.860;2023-02-17T02:01:29;102051.44;;;2.95;87.60
42385;BME280;28042;43.986;22.860;2023-02-17T02:03:55;102043.03;;;3.35;86.13
42385;BME280;28042;43.986;22.860;2023-02-17T02:06:23;102045.66;;;3.59;85.22
42385;BME280;28042;43.986;22.860;2023-02-17T02:11:20;102034.41;;;4.32;82.61
42385;BME280;28042;43.986;22.860;2023-02-17T02:13:46;102032.75;;;4.63;80.35
42385;BME280;28042;43.986;22.860;2023-02-17T02:31:55;102022.50;;;5.21;76.02
42385;BME280;28042;43.986;22.860;2023-02-17T02:34:25;102015.81;;;5.04;76.37
42385;BME280;28042;43.986;22.860;2023-02-17T02:39:19;102017.88;;;5.01;76.47
42385;BME280;28042;43.986;22.860;2023-02-17T02:44:14;102024.78;;;5.26;75.35
42385;BME280;28042;43.986;22.860;2023-02-17T02:46:39;102013.59;;;5.30;75.13
42385;BME280;28042;43.986;22.860;2023-02-17T02:49:05;102014.69;;;5.28;75.30
42385;BME280;28042;43.986;22.860;2023-02-17T02:51:54;102016.28;;;5.30;75.23
42385;BME280;28042;43.986;22.860;2023-02-17T02:54:18;102013.59;;;5.30;75.44
42385;BME280;28042;43.986;22.860;2023-02-17T02:59:39;102020.41;;;5.55;73.92
42385;BME280;28042;43.986;22.860;2023-02-17T03:02:20;102019.19;;;5.59;73.07
42385;BME280;28042;43.986;22.860;2023-02-17T03:05:14;102018.25;;;5.70;72.45
42385;BME280;28042;43.986;22.860;2023-02-17T03:07:39;102022.59;;;5.82;71.69
42385;BME280;28042;43.986;22.860;2023-02-17T03:10:05;102014.72;;;5.79;71.52
42385;BME280;28042;43.986;22.860;2023-02-17T03:12:31;102014.00;;;5.77;71.57
42385;BME280;28042;43.986;22.860;2023-02-17T03:14:59;102025.13;;;5.74;71.66
42385;BME280;28042;43.986;22.860;2023-02-17T03:17:25;102015.72;;;5.78;71.66
42385;BME280;28042;43.986;22.860;2023-02-17T03:19:50;102025.38;;;5.71;71.46
42385;BME280;28042;43.986;22.860;2023-02-17T03:24:41;102024.78;;;5.67;71.67
42385;BME280;28042;43.986;22.860;2023-02-17T03:27:07;102028.06;;;5.71;71.20
42385;BME280;28042;43.986;22.860;2023-02-17T03:29:32;102019.38;;;5.67;71.50
42385;BME280;28042;43.986;22.860;2023-02-17T03:31:57;102022.22;;;5.66;71.89
42385;BME280;28042;43.986;22.860;2023-02-17T03:34:23;102025.91;;;5.65;71.81
42385;BME280;28042;43.986;22.860;2023-02-17T03:36:48;102029.06;;;5.70;71.98
42385;BME280;28042;43.986;22.860;2023-02-17T03:39:13;102032.25;;;5.75;71.56
42385;BME280;28042;43.986;22.860;2023-02-17T03:41:39;102032.97;;;5.77;70.97
42385;BME280;28042;43.986;22.860;2023-02-17T03:44:04;102035.47;;;5.69;72.00
42385;BME280;28042;43.986;22.860;2023-02-17T03:46:29;102034.16;;;5.63;72.20
42385;BME280;28042;43.986;22.860;2023-02-17T03:48:55;102036.56;;;5.57;72.82
42385;BME280;28042;43.986;22.860;2023-02-17T03:51:21;102039.50;;;5.54;72.99
42385;BME280;28042;43.986;22.860;2023-02-17T03:53:47;102035.22;;;5.51;72.87
42385;BME280;28042;43.986;22.860;2023-02-17T03:56:12;102039.63;;;5.52;73.18
42385;BME280;28042;43.986;22.860;2023-02-17T03:58:38;102033.66;;;5.49;73.57
42385;BME280;28042;43.986;22.860;2023-02-17T04:01:04;102038.06;;;5.50;73.37
42385;BME280;28042;43.986;22.860;2023-02-17T04:03:29;102045.72;;;5.45;73.65
42385;BME280;28042;43.986;22.860;2023-02-17T04:05:54;102055.09;;;5.41;74.25
42385;BME280;28042;43.986;22.860;2023-02-17T04:08:20;102057.31;;;5.35;74.58
42385;BME280;28042;43.986;22.860;2023-02-17T04:10:49;102056.13;;;5.28;74.77
42385;BME280;28042;43.986;22.860;2023-02-17T04:13:15;102062.16;;;5.32;74.87
42385;BME280;28042;43.986;22.860;2023-02-17T04:15:40;102056.72;;;5.53;74.28
42385;BME280;28042;43.986;22.860;2023-02-17T04:18:05;102052.84;;;5.66;73.31
42385;BME280;28042;43.986;22.860;2023-02-17T04:20:31;102055.34;;;5.79;72.50
42385;BME280;28042;43.986;22.860;2023-02-17T04:22:56;102055.66;;;5.86;72.48
42385;BME280;28042;43.986;22.860;2023-02-17T04:25:21;102054.81;;;5.85;72.08
42385;BME280;28042;43.986;22.860;2023-02-17T04:27:47;102049.13;;;5.88;72.42
42385;BME280;28042;43.986;22.860;2023-02-17T04:30:13;102049.13;;;5.88;72.05
42385;BME280;28042;43.986;22.860;2023-02-17T04:32:38;102042.28;;;5.84;72.16
42385;BME280;28042;43.986;22.860;2023-02-17T04:35:03;102036.81;;;5.75;72.25
42385;BME280;28042;43.986;22.860;2023-02-17T04:37:29;102046.59;;;5.66;73.23
42385;BME280;28042;43.986;22.860;2023-02-17T04:39:54;102042.69;;;5.59;73.68
42385;BME280;28042;43.986;22.860;2023-02-17T04:42:20;102046.16;;;5.71;73.37
42385;BME280;28042;43.986;22.860;2023-02-17T04:44:45;102042.53;;;5.81;73.18
42385;BME280;28042;43.986;22.860;2023-02-17T04:47:10;102044.63;;;5.99;72.38
42385;BME280;28042;43.986;22.860;2023-02-17T04:49:36;102047.00;;;6.13;71.24
42385;BME280;28042;43.986;22.860;2023-02-17T04:52:01;102044.19;;;6.24;70.55
42385;BME280;28042;43.986;22.860;2023-02-17T04:54:26;102056.84;;;6.44;69.41
42385;BME280;28042;43.986;22.860;2023-02-17T04:56:52;102050.25;;;6.37;69.48
42385;BME280;28042;43.986;22.860;2023-02-17T04:59:17;102046.00;;;6.44;69.16
42385;BME280;28042;43.986;22.860;2023-02-17T05:01:42;102049.72;;;6.53;68.72
42385;BME280;28042;43.986;22.860;2023-02-17T05:04:07;102048.16;;;6.60;67.99
42385;BME280;28042;43.986;22.860;2023-02-17T05:06:33;102058.31;;;6.68;67.79
42385;BME280;28042;43.986;22.860;2023-02-17T05:08:58;102054.72;;;6.58;68.06
42385;BME280;28042;43.986;22.860;2023-02-17T05:11:23;102060.81;;;6.50;68.37
42385;BME280;28042;43.986;22.860;2023-02-17T05:13:49;102055.72;;;6.57;67.88
42385;BME280;28042;43.986;22.860;2023-02-17T05:16:14;102059.44;;;6.56;67.92
42385;BME280;28042;43.986;22.860;2023-02-17T05:18:39;102063.00;;;6.66;67.05
42385;BME280;28042;43.986;22.860;2023-02-17T05:21:05;102064.31;;;6.62;67.42
42385;BME280;28042;43.986;22.860;2023-02-17T05:23:30;102058.88;;;6.62;67.70
42385;BME280;28042;43.986;22.860;2023-02-17T05:25:55;102061.59;;;6.62;67.53
42385;BME280;28042;43.986;22.860;2023-02-17T05:28:21;102074.69;;;6.57;67.86
42385;BME280;28042;43.986;22.860;2023-02-17T05:30:49;102063.13;;;6.55;68.20
42385;BME280;28042;43.986;22.860;2023-02-17T05:33:14;102066.28;;;6.60;67.96
42385;BME280;28042;43.986;22.860;2023-02-17T05:35:40;102062.59;;;6.61;67.85
42385;BME280;28042;43.986;22.860;2023-02-17T05:38:05;102069.97;;;6.59;68.22
42385;BME280;28042;43.986;22.860;2023-02-17T05:40:31;102068.03;;;6.61;68.05
42385;BME280;28042;43.986;22.860;2023-02-17T05:42:56;102079.00;;;6.69;67.95
42385;BME280;28042;43.986;22.860;2023-02-17T05:45:21;102078.28;;;6.67;67.84
42385;BME280;28042;43.986;22.860;2023-02-17T05:47:46;102084.16;;;6.72;67.81
42385;BME280;28042;43.986;22.860;2023-02-17T05:50:12;102091.63;;;6.79;67.29
42385;BME280;28042;43.986;22.860;2023-02-17T05:52:37;102084.75;;;6.85;67.60
42385;BME280;28042;43.986;22.860;2023-02-17T05:55:03;102092.03;;;6.85;67.60
42385;BME280;28042;43.986;22.860;2023-02-17T05:57:28;102104.47;;;6.87;67.87
42385;BME280;28042;43.986;22.860;2023-02-17T05:59:54;102107.78;;;7.00;67.10
42385;BME280;28042;43.986;22.860;2023-02-17T06:02:19;102108.38;;;7.14;66.50
42385;BME280;28042;43.986;22.860;2023-02-17T06:04:45;102104.97;;;7.31;66.14
42385;BME280;28042;43.986;22.860;2023-02-17T06:07:10;102110.09;;;7.44;65.79
42385;BME280;28042;43.986;22.860;2023-02-17T06:09:36;102117.97;;;7.56;65.23
42385;BME280;28042;43.986;22.860;2023-02-17T06:12:01;102118.69;;;7.68;64.60
42385;BME280;28042;43.986;22.860;2023-02-17T06:14:26;102114.25;;;7.67;64.51
42385;BME280;28042;43.986;22.860;2023-02-17T06:16:52;102134.81;;;7.79;64.11
42385;BME280;28042;43.986;22.860;2023-02-17T06:19:17;102124.38;;;7.94;63.35
42385;BME280;28042;43.986;22.860;2023-02-17T06:21:43;102135.38;;;8.02;62.85
42385;BME280;28042;43.986;22.860;2023-02-17T06:24:08;102139.50;;;8.06;62.81
42385;BME280;28042;43.986;22.860;2023-02-17T06:26:33;102135.75;;;8.07;62.98
42385;BME280;28042;43.986;22.860;2023-02-17T06:28:59;102141.19;;;8.07;62.86
42385;BME280;28042;43.986;22.860;2023-02-17T06:31:24;102144.78;;;8.17;62.63
42385;BME280;28042;43.986;22.860;2023-02-17T06:33:49;102141.44;;;8.23;61.98
42385;BME280;28042;43.986;22.860;2023-02-17T06:36:15;102140.91;;;8.20;62.08
42385;BME280;28042;43.986;22.860;2023-02-17T06:38:40;102142.47;;;8.22;62.16
42385;BME280;28042;43.986;22.860;2023-02-17T06:41:05;102144.06;;;8.35;61.66
42385;BME280;28042;43.986;22.860;2023-02-17T06:43:31;102141.19;;;8.36;62.04
42385;BME280;28042;43.986;22.860;2023-02-17T06:45:56;102137.94;;;8.60;60.89
42385;BME280;28042;43.986;22.860;2023-02-17T06:48:21;102136.44;;;8.75;60.26
42385;BME280;28042;43.986;22.860;2023-02-17T06:50:47;102135.53;;;8.85;59.96
42385;BME280;28042;43.986;22.860;2023-02-17T06:53:13;102150.03;;;9.03;58.98
42385;BME280;28042;43.986;22.860;2023-02-17T06:55:38;102140.16;;;9.02;58.88
42385;BME280;28042;43.986;22.860;2023-02-17T06:58:03;102146.69;;;9.09;59.44
42385;BME280;28042;43.986;22.860;2023-02-17T07:00:29;102140.25;;;9.10;58.36
42385;BME280;28042;43.986;22.860;2023-02-17T07:02:54;102142.03;;;9.19;58.29
42385;BME280;28042;43.986;22.860;2023-02-17T07:05:19;102142.13;;;9.27;57.47
42385;BME280;28042;43.986;22.860;2023-02-17T07:07:45;102135.75;;;9.37;57.35
42385;BME280;28042;43.986;22.860;2023-02-17T07:10:10;102137.47;;;9.55;56.31
42385;BME280;28042;43.986;22.860;2023-02-17T07:12:36;102145.03;;;9.61;56.02
42385;BME280;28042;43.986;22.860;2023-02-17T07:15:01;102137.88;;;9.78;55.53
42385;BME280;28042;43.986;22.860;2023-02-17T07:17:26;102146.88;;;9.97;54.99
42385;BME280;28042;43.986;22.860;2023-02-17T07:19:51;102147.06;;;10.21;53.84
42385;BME280;28042;43.986;22.860;2023-02-17T07:22:17;102142.81;;;10.44;52.61
42385;BME280;28042;43.986;22.860;2023-02-17T07:24:42;102149.69;;;10.57;52.40
42385;BME280;28042;43.986;22.860;2023-02-17T07:27:07;102149.41;;;10.68;52.62
42385;BME280;28042;43.986;22.860;2023-02-17T07:29:33;102148.97;;;10.81;51.59
42385;BME280;28042;43.986;22.860;2023-02-17T07:31:58;102157.22;;;10.97;50.65
42385;BME280;28042;43.986;22.860;2023-02-17T07:34:24;102152.66;;;11.06;50.47
42385;BME280;28042;43.986;22.860;2023-02-17T07:36:49;102163.78;;;11.12;50.24
42385;BME280;28042;43.986;22.860;2023-02-17T07:39:14;102161.94;;;11.21;49.59
42385;BME280;28042;43.986;22.860;2023-02-17T07:41:40;102160.38;;;11.26;49.88
42385;BME280;28042;43.986;22.860;2023-02-17T07:44:05;102158.88;;;11.32;49.42
42385;BME280;28042;43.986;22.860;2023-02-17T07:46:30;102168.25;;;11.38;49.42
42385;BME280;28042;43.986;22.860;2023-02-17T07:48:56;102160.94;;;11.38;49.61
42385;BME280;28042;43.986;22.860;2023-02-17T07:51:22;102170.84;;;11.39;49.88
42385;BME280;28042;43.986;22.860;2023-02-17T07:53:48;102169.81;;;11.32;49.79
42385;BME280;28042;43.986;22.860;2023-02-17T07:56:14;102172.22;;;11.43;49.12
42385;BME280;28042;43.986;22.860;2023-02-17T07:58:40;102173.78;;;11.54;49.36
42385;BME280;28042;43.986;22.860;2023-02-17T08:01:07;102164.91;;;11.68;48.69
42385;BME280;28042;43.986;22.860;2023-02-17T08:03:32;102169.59;;;11.84;48.51
42385;BME280;28042;43.986;22.860;2023-02-17T08:05:58;102161.53;;;11.99;47.27
42385;BME280;28042;43.986;22.860;2023-02-17T08:08:23;102163.09;;;12.09;47.25
42385;BME280;28042;43.986;22.860;2023-02-17T08:11:09;102179.81;;;12.06;45.89
42385;BME280;28042;43.986;22.860;2023-02-17T08:13:54;102174.88;;;12.02;45.74
42385;BME280;28042;43.986;22.860;2023-02-17T08:16:20;102180.84;;;11.89;45.85
42385;BME280;28042;43.986;22.860;2023-02-17T08:18:45;102167.19;;;11.89;45.99
42385;BME280;28042;43.986;22.860;2023-02-17T08:21:10;102182.06;;;12.11;45.76
42385;BME280;28042;43.986;22.860;2023-02-17T08:23:36;102175.38;;;12.13;45.42
42385;BME280;28042;43.986;22.860;2023-02-17T08:26:02;102185.28;;;12.23;44.95
42385;BME280;28042;43.986;22.860;2023-02-17T08:28:27;102179.63;;;12.24;45.03
42385;BME280;28042;43.986;22.860;2023-02-17T08:30:52;102179.44;;;12.42;44.90
42385;BME280;28042;43.986;22.860;2023-02-17T08:33:17;102182.84;;;12.60;44.48
42385;BME280;28042;43.986;22.860;2023-02-17T08:35:43;102184.19;;;12.72;43.65
42385;BME280;28042;43.986;22.860;2023-02-17T08:38:09;102183.78;;;12.92;42.33
42385;BME280;28042;43.986;22.860;2023-02-17T08:40:34;102177.88;;;13.11;42.24
42385;BME280;28042;43.986;22.860;2023-02-17T08:43:00;102181.06;;;13.31;41.47
42385;BME280;28042;43.986;22.860;2023-02-17T08:45:25;102178.19;;;13.55;41.22
42385;BME280;28042;43.986;22.860;2023-02-17T08:47:51;102187.50;;;13.69;40.78
42385;BME280;28042;43.986;22.860;2023-02-17T08:50:16;102192.22;;;13.83;39.33
42385;BME280;28042;43.986;22.860;2023-02-17T08:52:43;102184.59;;;13.94;39.14
42385;BME280;28042;43.986;22.860;2023-02-17T08:55:09;102189.28;;;14.08;39.13
42385;BME280;28042;43.986;22.860;2023-02-17T08:57:34;102189.13;;;14.24;37.84
42385;BME280;28042;43.986;22.860;2023-02-17T08:59:59;102186.03;;;14.27;37.76
42385;BME280;28042;43.986;22.860;2023-02-17T09:02:25;102186.41;;;14.39;38.09
42385;BME280;28042;43.986;22.860;2023-02-17T09:04:50;102180.25;;;14.37;37.95
42385;BME280;28042;43.986;22.860;2023-02-17T09:07:15;102189.81;;;14.64;37.78
42385;BME280;28042;43.986;22.860;2023-02-17T09:09:41;102180.38;;;14.43;37.13
42385;BME280;28042;43.986;22.860;2023-02-17T09:12:06;102187.53;;;14.53;37.33
42385;BME280;28042;43.986;22.860;2023-02-17T09:14:32;102177.50;;;14.60;37.15
42385;BME280;28042;43.986;22.860;2023-02-17T09:16:57;102176.53;;;14.53;37.19
42385;BME280;28042;43.986;22.860;2023-02-17T09:19:23;102183.34;;;14.57;37.66
42385;BME280;28042;43.986;22.860;2023-02-17T09:21:49;102172.28;;;14.65;38.01
42385;BME280;28042;43.986;22.860;2023-02-17T09:24:14;102187.72;;;14.81;37.47
42385;BME280;28042;43.986;22.860;2023-02-17T09:26:40;102180.91;;;14.91;34.02
42385;BME280;28042;43.986;22.860;2023-02-17T09:29:05;102191.69;;;15.08;34.49
42385;BME280;28042;43.986;22.860;2023-02-17T09:31:33;102180.31;;;15.11;34.99
42385;BME280;28042;43.986;22.860;2023-02-17T09:33:59;102186.28;;;15.14;35.22
42385;BME280;28042;43.986;22.860;2023-02-17T09:36:25;102183.28;;;15.45;34.46
42385;BME280;28042;43.986;22.860;2023-02-17T09:38:51;102190.09;;;15.49;32.96
42385;BME280;28042;43.986;22.860;2023-02-17T09:43:42;102188.72;;;15.39;33.08
42385;BME280;28042;43.986;22.860;2023-02-17T09:46:09;102192.03;;;15.34;32.13
42385;BME280;28042;43.986;22.860;2023-02-17T09:48:36;102196.22;;;15.30;32.49
42385;BME280;28042;43.986;22.860;2023-02-17T09:53:47;102198.88;;;15.38;33.12
42385;BME280;28042;43.986;22.860;2023-02-17T09:56:17;102206.44;;;15.36;32.74
42385;BME280;28042;43.986;22.860;2023-02-17T09:58:48;102182.38;;;15.23;32.91
42385;BME280;28042;43.986;22.860;2023-02-17T10:01:19;102181.50;;;15.38;32.96
42385;BME280;28042;43.986;22.860;2023-02-17T10:03:47;102175.50;;;15.64;33.08
42385;BME280;28042;43.986;22.860;2023-02-17T10:09:03;102130.84;;;15.47;32.42
42385;BME280;28042;43.986;22.860;2023-02-17T10:17:05;102171.72;;;15.35;32.79
42385;BME280;28042;43.986;22.860;2023-02-17T10:19:37;102169.09;;;15.27;32.73
42385;BME280;28042;43.986;22.860;2023-02-17T10:22:18;102171.94;;;15.19;33.21
42385;BME280;28042;43.986;22.860;2023-02-17T10:24:43;102159.56;;;15.44;33.24
42385;BME280;28042;43.986;22.860;2023-02-17T10:32:19;102157.03;;;15.28;33.94
42385;BME280;28042;43.986;22.860;2023-02-17T10:43:00;102141.47;;;14.84;34.40
42385;BME280;28042;43.986;22.860;2023-02-17T10:48:01;102132.28;;;14.92;34.32
42385;BME280;28042;43.986;22.860;2023-02-17T10:50:27;102134.56;;;15.03;34.40
42385;BME280;28042;43.986;22.860;2023-02-17T10:52:53;102124.66;;;15.23;34.80
42385;BME280;28042;43.986;22.860;2023-02-17T10:57:57;102107.03;;;15.18;34.64
42385;BME280;28042;43.986;22.860;2023-02-17T11:00:24;102119.72;;;15.19;34.79
42385;BME280;28042;43.986;22.860;2023-02-17T11:02:51;102113.84;;;15.22;34.63
42385;BME280;28042;43.986;22.860;2023-02-17T11:05:35;102111.34;;;15.27;34.79
42385;BME280;28042;43.986;22.860;2023-02-17T11:08:04;102106.34;;;15.31;34.89
42385;BME280;28042;43.986;22.860;2023-02-17T11:10:31;102088.53;;;15.48;34.98
42385;BME280;28042;43.986;22.860;2023-02-17T11:12:57;102106.13;;;15.68;35.00
42385;BME280;28042;43.986;22.860;2023-02-17T11:15:25;102104.41;;;15.67;34.30
42385;BME280;28042;43.986;22.860;2023-02-17T11:17:51;102095.56;;;15.72;34.42
42385;BME280;28042;43.986;22.860;2023-02-17T11:27:57;102109.06;;;15.67;33.76
42385;BME280;28042;43.986;22.860;2023-02-17T11:30:23;102097.44;;;15.50;34.08
42385;BME280;28042;43.986;22.860;2023-02-17T11:32:49;102089.06;;;15.58;34.25
42385;BME280;28042;43.986;22.860;2023-02-17T11:37:46;102082.84;;;15.71;34.62
42385;BME280;28042;43.986;22.860;2023-02-17T11:40:24;102082.56;;;15.87;34.13
42385;BME280;28042;43.986;22.860;2023-02-17T11:42:59;102070.06;;;15.85;33.98
42385;BME280;28042;43.986;22.860;2023-02-17T11:45:26;102069.13;;;15.99;33.84
42385;BME280;28042;43.986;22.860;2023-02-17T11:47:57;102066.25;;;16.14;33.39
42385;BME280;28042;43.986;22.860;2023-02-17T11:50:30;102067.56;;;16.18;33.27
42385;BME280;28042;43.986;22.860;2023-02-17T11:53:06;102063.56;;;16.20;33.36
42385;BME280;28042;43.986;22.860;2023-02-17T11:58:20;102068.59;;;16.45;32.45
42385;BME280;28042;43.986;22.860;2023-02-17T12:00:52;102062.63;;;16.41;32.44
42385;BME280;28042;43.986;22.860;2023-02-17T12:13:26;102043.06;;;17.25;27.84
42385;BME280;28042;43.986;22.860;2023-02-17T12:15:54;102025.66;;;17.18;27.94
42385;BME280;28042;43.986;22.860;2023-02-17T12:23:18;102031.13;;;17.11;27.75
42385;BME280;28042;43.986;22.860;2023-02-17T12:31:06;102030.66;;;16.88;27.95
42385;BME280;28042;43.986;22.860;2023-02-17T12:33:43;102024.50;;;16.79;27.74
42385;BME280;28042;43.986;22.860;2023-02-17T12:36:14;102017.06;;;16.80;27.52
42385;BME280;28042;43.986;22.860;2023-02-17T12:38:42;102020.28;;;16.90;28.26
42385;BME280;28042;43.986;22.860;2023-02-17T12:41:09;102034.97;;;17.04;27.98
42385;BME280;28042;43.986;22.860;2023-02-17T12:43:41;102020.09;;;16.98;27.74
42385;BME280;28042;43.986;22.860;2023-02-17T12:46:09;102020.69;;;16.93;27.77
42385;BME280;28042;43.986;22.860;2023-02-17T12:48:41;102010.56;;;16.94;27.93
42385;BME280;28042;43.986;22.860;2023-02-17T12:51:20;102016.00;;;16.81;28.22
42385;BME280;28042;43.986;22.860;2023-02-17T12:54:02;102010.75;;;16.86;28.00
42385;BME280;28042;43.986;22.860;2023-02-17T12:59:19;102025.59;;;16.98;27.93
42385;BME280;28042;43.986;22.860;2023-02-17T13:04:37;102031.50;;;16.82;28.51
42385;BME280;28042;43.986;22.860;2023-02-17T13:09:40;102034.47;;;16.93;28.50
42385;BME280;28042;43.986;22.860;2023-02-17T13:12:14;102026.03;;;16.95;27.87
42385;BME280;28042;43.986;22.860;2023-02-17T13:14:47;102029.00;;;17.00;28.29
42385;BME280;28042;43.986;22.860;2023-02-17T13:20:35;102013.38;;;17.20;28.50
42385;BME280;28042;43.986;22.860;2023-02-17T13:22:45;102009.06;;;17.11;28.13
42385;BME280;28042;43.986;22.860;2023-02-17T13:25:12;102010.56;;;17.07;28.61
42385;BME280;28042;43.986;22.860;2023-02-17T13:27:38;102013.50;;;16.99;28.81
42385;BME280;28042;43.986;22.860;2023-02-17T13:30:23;102007.97;;;16.86;28.86
42385;BME280;28042;43.986;22.860;2023-02-17T13:32:59;102010.50;;;16.81;28.52
42385;BME280;28042;43.986;22.860;2023-02-17T13:37:50;101998.44;;;16.88;28.81
42385;BME280;28042;43.986;22.860;2023-02-17T13:42:44;102009.47;;;17.02;28.97
42385;BME280;28042;43.986;22.860;2023-02-17T13:45:16;102011.38;;;16.88;28.68
42385;BME280;28042;43.986;22.860;2023-02-17T13:47:43;102003.50;;;16.85;29.20
42385;BME280;28042;43.986;22.860;2023-02-17T13:52:53;102004.56;;;16.84;28.68
42385;BME280;28042;43.986;22.860;2023-02-17T13:55:19;102003.75;;;16.90;28.79
42385;BME280;28042;43.986;22.860;2023-02-17T13:57:44;102006.91;;;16.87;28.86
42385;BME280;28042;43.986;22.860;2023-02-17T14:02:43;102004.75;;;16.76;29.21
42385;BME280;28042;43.986;22.860;2023-02-17T14:05:35;102005.63;;;16.83;28.67
42385;BME280;28042;43.986;22.860;2023-02-17T14:08:05;102008.81;;;16.86;28.76
42385;BME280;28042;43.986;22.860;2023-02-17T14:10:31;102000.09;;;16.83;29.03
42385;BME280;28042;43.986;22.860;2023-02-17T14:12:57;101999.22;;;16.76;28.77
42385;BME280;28042;43.986;22.860;2023-02-17T14:15:26;102006.03;;;16.80;29.10
42385;BME280;28042;43.986;22.860;2023-02-17T14:17:52;101995.44;;;16.77;29.03
42385;BME280;28042;43.986;22.860;2023-02-17T14:20:33;101989.09;;;16.83;29.22
42385;BME280;28042;43.986;22.860;2023-02-17T14:23:00;102000.09;;;16.83;28.82
42385;BME280;28042;43.986;22.860;2023-02-17T14:25:27;101998.38;;;16.69;29.27
42385;BME280;28042;43.986;22.860;2023-02-17T14:27:52;101998.75;;;16.65;28.71
42385;BME280;28042;43.986;22.860;2023-02-17T14:30:34;101999.38;;;16.61;28.24
42385;BME280;28042;43.986;22.860;2023-02-17T14:33:06;102011.00;;;16.56;28.90
42385;BME280;28042;43.986;22.860;2023-02-17T14:35:32;101990.44;;;16.52;28.44
42385;BME280;28042;43.986;22.860;2023-02-17T14:40:53;101994.69;;;16.55;29.09
42385;BME280;28042;43.986;22.860;2023-02-17T14:43:20;101988.75;;;16.58;29.38
42385;BME280;28042;43.986;22.860;2023-02-17T14:45:45;101981.75;;;16.55;29.39